createdAt,value
2019-01-08T00:03:45.077Z,53
2019-01-08T00:08:42.011Z,53.3
2019-01-08T00:13:38.540Z,52.7
2019-01-08T00:18:35.384Z,52.6
2019-01-08T00:23:31.939Z,52.6
2019-01-08T00:28:28.521Z,52.5
2019-01-08T00:33:24.761Z,52.6
2019-01-08T00:38:21.534Z,52.9
2019-01-08T00:43:18.344Z,52.9
2019-01-08T00:48:14.973Z,53.3
2019-01-08T00:53:11.671Z,53.3
2019-01-08T00:58:08.330Z,53.4
2019-01-08T01:03:04.674Z,53.3
2019-01-08T01:08:01.285Z,53.4
2019-01-08T01:12:58.131Z,53.8
2019-01-08T01:17:54.775Z,54.1
2019-01-08T01:22:51.461Z,54.2
2019-01-08T01:27:48.050Z,53.8
2019-01-08T01:32:44.612Z,54.2
2019-01-08T01:37:41.300Z,54.6
2019-01-08T01:42:37.841Z,54.4
2019-01-08T01:47:34.438Z,54.5
2019-01-08T01:52:31.059Z,54.3
2019-01-08T01:57:27.680Z,53.8
2019-01-08T02:02:24.393Z,54
2019-01-08T02:07:21.138Z,54.6
2019-01-08T02:12:17.469Z,54.1
2019-01-08T02:17:14.143Z,54
2019-01-08T02:22:10.681Z,53.9
2019-01-08T02:27:06.879Z,54.4
2019-01-08T02:32:03.468Z,54.3
2019-01-08T02:37:00.000Z,54
2019-01-08T02:41:56.681Z,54.3
2019-01-08T02:46:53.139Z,54.7
2019-01-08T02:51:49.477Z,54.7
2019-01-08T02:56:46.073Z,54.9
2019-01-08T03:01:42.366Z,55.1
2019-01-08T03:06:39.142Z,55.1
2019-01-08T03:11:35.432Z,54.8
2019-01-08T03:16:32.045Z,55
2019-01-08T03:21:28.766Z,55
2019-01-08T03:26:25.294Z,54.9
2019-01-08T03:31:21.928Z,54.9
2019-01-08T03:36:18.704Z,54.8
2019-01-08T03:41:15.099Z,54.5
2019-01-08T03:46:11.863Z,54.5
2019-01-08T03:51:08.569Z,54.6
2019-01-08T03:56:05.201Z,54.9
2019-01-08T04:01:01.771Z,54.2
2019-01-08T04:05:58.315Z,54.7
2019-01-08T04:10:55.067Z,53.6
2019-01-08T04:15:51.414Z,53.5
2019-01-08T04:20:47.934Z,52.9
2019-01-08T04:25:44.588Z,53
2019-01-08T04:30:41.052Z,53.2
2019-01-08T04:35:37.780Z,53.6
2019-01-08T04:40:34.265Z,53.3
2019-01-08T04:45:30.945Z,53
2019-01-08T04:50:27.452Z,53.3
2019-01-08T04:55:24.064Z,53
2019-01-08T05:00:20.566Z,53.2
2019-01-08T05:05:17.331Z,53.2
2019-01-08T05:10:13.768Z,53.2
2019-01-08T05:15:10.508Z,53.1
2019-01-08T05:20:06.643Z,54.3
2019-01-08T05:25:03.810Z,53
2019-01-08T05:30:07.678Z,53.3
2019-01-08T05:34:56.960Z,53.5
2019-01-08T05:39:53.572Z,53.2
2019-01-08T05:49:46.861Z,54.2
2019-01-08T05:54:43.620Z,53.9
2019-01-08T05:59:40.133Z,54.1
2019-01-08T06:04:36.766Z,54.4
2019-01-08T06:09:33.284Z,53.2
2019-01-08T06:14:30.091Z,53
2019-01-08T06:19:27.147Z,53.2
2019-01-08T06:24:23.357Z,53.4
2019-01-08T06:29:20.006Z,53.3
2019-01-08T06:34:16.724Z,53.5
2019-01-08T06:39:13.941Z,54
2019-01-08T06:44:10.570Z,53.1
2019-01-08T06:49:07.282Z,53
2019-01-08T06:54:04.064Z,53.1
2019-01-08T06:59:00.488Z,53.5
2019-01-08T07:03:57.119Z,53.5
2019-01-08T07:08:53.697Z,53.8
2019-01-08T07:13:51.325Z,53.6
2019-01-08T07:18:46.541Z,52.8
2019-01-08T07:23:43.065Z,53.3
2019-01-08T07:28:39.718Z,53.2
2019-01-08T07:33:36.480Z,53.1
2019-01-08T07:38:33.100Z,52.6
2019-01-08T07:43:29.549Z,53
2019-01-08T07:48:26.336Z,53.1
2019-01-08T07:53:22.995Z,52.7
2019-01-08T07:58:19.785Z,52.3
2019-01-08T08:03:16.346Z,52
2019-01-08T08:08:12.222Z,51.6
2019-01-08T08:13:08.619Z,51.7
2019-01-08T08:18:05.262Z,50.8
2019-01-08T08:23:01.800Z,50.4
2019-01-08T08:27:58.326Z,50.7
2019-01-08T08:32:54.959Z,50.7
2019-01-08T08:37:51.549Z,50.2
2019-01-08T08:42:48.195Z,50.2
2019-01-08T08:47:44.791Z,49.8
2019-01-08T08:52:41.688Z,49.2
2019-01-08T08:57:38.470Z,49.7
2019-01-08T09:02:35.156Z,49.5
2019-01-08T09:07:31.320Z,49.7
2019-01-08T09:12:28.013Z,50
2019-01-08T09:17:25.279Z,49.6
2019-01-08T09:22:21.899Z,49.4
2019-01-08T09:27:17.897Z,49.1
2019-01-08T09:32:14.309Z,49.1
2019-01-08T09:37:10.591Z,49
2019-01-08T09:42:07.569Z,48.3
2019-01-08T09:47:04.244Z,48.2
2019-01-08T09:56:57.163Z,47.9
2019-01-08T10:01:53.919Z,47.5
2019-01-08T10:06:50.990Z,47.2
2019-01-08T10:11:47.460Z,47.6
2019-01-08T10:16:44.013Z,47.5
2019-01-08T10:21:40.537Z,47.1
2019-01-08T10:26:37.183Z,46.4
2019-01-08T10:31:34.015Z,46.3
2019-01-08T10:36:30.691Z,45.3
2019-01-08T10:41:27.495Z,45.7
2019-01-08T10:46:23.924Z,44.6
2019-01-08T10:51:20.500Z,44.8
2019-01-08T10:56:16.966Z,44.8
2019-01-08T11:01:13.555Z,44.3
2019-01-08T11:06:10.517Z,44.5
2019-01-08T11:11:07.892Z,43.8
2019-01-08T11:16:03.720Z,44.4
2019-01-08T11:21:00.442Z,44.6
2019-01-08T11:25:57.139Z,44.4
2019-01-08T11:30:53.890Z,44.1
2019-01-08T11:35:50.622Z,44
2019-01-08T11:40:46.924Z,43.7
2019-01-08T11:45:43.253Z,43
2019-01-08T11:50:40.012Z,42.1
2019-01-08T11:55:36.882Z,42.4
2019-01-08T12:00:33.508Z,41.9
2019-01-08T12:05:30.045Z,40.5
2019-01-08T12:10:26.792Z,40.1
2019-01-08T12:15:23.779Z,40.5
2019-01-08T12:20:20.689Z,39.2
2019-01-08T12:25:17.495Z,40
2019-01-08T12:30:14.451Z,38.8
2019-01-08T12:35:11.331Z,37.8
2019-01-08T12:40:08.253Z,37.7
2019-01-08T12:45:04.652Z,37.7
2019-01-08T12:50:01.364Z,37.9
2019-01-08T12:54:58.124Z,37.5
2019-01-08T12:59:54.993Z,37.3
2019-01-08T13:04:51.145Z,37.2
2019-01-08T13:09:48.609Z,37
2019-01-08T13:14:45.883Z,37
2019-01-08T13:19:42.463Z,36.3
2019-01-08T13:29:50.585Z,34.9
2019-01-08T13:34:47.257Z,34.3
2019-01-08T13:39:42.065Z,33.4
2019-01-08T13:44:38.883Z,33.9
2019-01-08T13:49:35.370Z,33.7
2019-01-08T13:54:30.962Z,34.7
2019-01-08T13:59:27.821Z,36.6
2019-01-08T14:04:24.323Z,37.4
2019-01-08T14:09:21.331Z,38.4
2019-01-08T14:14:17.460Z,39.6
2019-01-08T14:19:14.224Z,40.4
2019-01-08T14:24:11.029Z,40.9
2019-01-08T14:29:07.855Z,41.1
2019-01-08T14:34:04.576Z,41.1
2019-01-08T14:39:01.403Z,41
2019-01-08T14:43:57.864Z,41.3
2019-01-08T14:48:53.872Z,41.5
2019-01-08T14:53:50.451Z,41.6
2019-01-08T14:58:47.189Z,42.3
2019-01-08T15:03:43.837Z,41.9
2019-01-08T15:08:40.860Z,42
2019-01-08T15:13:37.793Z,41.4
2019-01-08T15:18:34.902Z,42.2
2019-01-08T15:23:31.802Z,41.5
2019-01-08T15:28:28.406Z,42
2019-01-08T15:33:24.577Z,42.5
2019-01-08T15:38:21.028Z,42.6
2019-01-08T15:43:17.665Z,43
2019-01-08T15:48:14.189Z,43.4
2019-01-08T15:53:09.524Z,43.4
2019-01-08T15:58:05.904Z,43.1
2019-01-08T16:03:07.040Z,43.9
2019-01-08T16:07:59.244Z,43.9
2019-01-08T16:12:55.395Z,43.6
2019-01-08T16:17:51.592Z,44.3
2019-01-08T16:22:47.759Z,44.1
2019-01-08T16:27:44.779Z,44.5
2019-01-08T16:32:41.297Z,44.7
2019-01-08T16:37:37.564Z,43.7
2019-01-08T16:42:33.930Z,44.6
2019-01-08T16:47:30.618Z,44.2
2019-01-08T16:52:27.324Z,44.2
2019-01-08T16:57:23.998Z,44
2019-01-08T17:02:20.485Z,44.3
2019-01-08T17:07:17.375Z,45.2
2019-01-08T17:17:10.549Z,44.5
2019-01-08T17:22:07.004Z,45.3
2019-01-08T17:27:03.719Z,45.4
2019-01-08T17:32:00.260Z,45.4
2019-01-08T17:36:57.106Z,45
2019-01-08T17:41:53.858Z,45.6
2019-01-08T17:46:50.410Z,46
2019-01-08T17:51:47.096Z,46.4
2019-01-08T17:56:43.772Z,46.7
2019-01-08T18:01:40.924Z,46.6
2019-01-08T18:06:37.506Z,47.3
2019-01-08T18:11:34.701Z,46.3
2019-01-08T18:16:31.532Z,46.7
2019-01-08T18:21:27.574Z,46.5
2019-01-08T18:26:23.956Z,46.2
2019-01-08T18:31:20.795Z,46.4
2019-01-08T18:36:16.788Z,46.5
2019-01-08T18:41:13.005Z,46.5
2019-01-08T18:46:09.675Z,46.8
2019-01-08T18:51:06.285Z,46.9
2019-01-08T18:56:02.861Z,47.1
2019-01-08T19:00:59.385Z,47.3
2019-01-08T19:05:56.247Z,47.5
2019-01-08T19:10:52.596Z,46.7
2019-01-08T19:15:49.400Z,47.2
2019-01-08T19:20:45.592Z,47.2
2019-01-08T19:25:42.318Z,46.5
2019-01-08T19:30:38.903Z,47.2
2019-01-08T19:35:35.309Z,46.6
2019-01-08T19:40:32.639Z,46.6
2019-01-08T19:45:29.088Z,47.1
2019-01-08T19:50:25.388Z,46.9
2019-01-08T19:55:22.065Z,46.5
2019-01-08T20:00:18.796Z,46.7
2019-01-08T20:05:15.649Z,46.6
2019-01-08T20:10:11.798Z,46.5
2019-01-08T20:15:08.475Z,47
2019-01-08T20:20:04.917Z,46.6
2019-01-08T20:25:01.554Z,46.7
2019-01-08T20:29:58.223Z,47.3
2019-01-08T20:34:54.861Z,47.6
2019-01-08T20:39:51.561Z,47.6
2019-01-08T20:44:48.230Z,46.9
2019-01-08T20:49:45.348Z,46.8
2019-01-08T20:54:42.038Z,47.5
2019-01-08T20:59:38.552Z,47.7
2019-01-08T21:04:35.839Z,47
2019-01-08T21:09:31.818Z,46.7
2019-01-08T21:14:28.426Z,46.4
2019-01-08T21:19:24.666Z,46.4
2019-01-08T21:24:28.369Z,46.2
2019-01-08T21:29:17.999Z,46.3
2019-01-08T21:34:15.435Z,46.2
2019-01-08T21:39:11.665Z,46
2019-01-08T21:44:08.413Z,46.6
2019-01-08T21:49:05.173Z,46.5
2019-01-08T21:54:01.970Z,46.3
2019-01-08T21:58:58.454Z,46.5
2019-01-08T22:03:54.540Z,46.5
2019-01-08T22:08:51.135Z,46.1
2019-01-08T22:13:47.960Z,46.3
2019-01-08T22:18:44.590Z,46.4
2019-01-08T22:23:41.132Z,46.8
2019-01-08T22:28:37.824Z,47
2019-01-08T22:33:34.763Z,47.1
2019-01-08T22:38:31.281Z,47
2019-01-08T22:43:28.262Z,47.1
2019-01-08T22:48:25.012Z,47.3
2019-01-08T22:53:21.730Z,47.3
2019-01-08T22:58:17.991Z,47.3
2019-01-08T23:03:14.709Z,46.9
2019-01-08T23:08:11.379Z,47
2019-01-08T23:13:08.037Z,47.5
2019-01-08T23:18:04.634Z,46.9
2019-01-08T23:23:01.233Z,47.3
2019-01-08T23:27:57.646Z,47.6
2019-01-08T23:32:54.363Z,47.5
2019-01-08T23:37:50.517Z,47.5
2019-01-08T23:42:47.300Z,47.5
2019-01-08T23:47:44.056Z,47.7
2019-01-08T23:52:40.702Z,46.8
2019-01-08T23:57:37.527Z,46.1
